Time;durP1;ratioP1;P1;durP2;ratioP2;P2;SDS_P1;SDS_P2;PMS_P1;PMS_P2;Temp;Humidity;BMP_temperature;BMP_pressure;BME280_temperature;BME280_humidity;BME280_pressure;Samples;Min_cycle;Max_cycle;Signal;HPM_P1;HPM_P2
2023/10/01 00:01:56;;;;;;;13.75;5.15;;;;;;;22.48;100.00;101116.63;20994743;28;20051;-68
2023/10/01 00:12:19;;;;;;;10.30;4.75;;;;;;;22.56;100.00;101111.06;20997158;28;20471;-68
2023/10/01 00:22:43;;;;;;;11.30;4.70;;;;;;;22.60;100.00;101116.28;20980947;28;20063;-69
2023/10/01 00:33:07;;;;;;;12.02;4.35;;;;;;;22.61;100.00;101095.66;20994458;28;20458;-68
2023/10/01 00:43:32;;;;;;;15.70;5.35;;;;;;;22.72;100.00;101093.50;20944275;28;20508;-68
2023/10/01 00:53:57;;;;;;;13.70;5.07;;;;;;;22.74;100.00;101085.44;20988284;28;20132;-68
2023/10/01 01:04:22;;;;;;;14.65;5.25;;;;;;;22.72;100.00;101087.25;20968598;28;20048;-68
2023/10/01 01:14:47;;;;;;;12.30;5.20;;;;;;;22.68;100.00;101081.09;20975647;28;20044;-68
2023/10/01 01:25:20;;;;;;;12.52;5.30;;;;;;;22.66;100.00;101064.09;20971799;28;20052;-69
2023/10/01 01:35:43;;;;;;;11.23;6.18;;;;;;;22.71;100.00;101067.50;20978393;28;20044;-68
2023/10/01 01:46:11;;;;;;;17.25;5.88;;;;;;;22.86;100.00;101042.00;20973831;28;20078;-68
2023/10/01 01:56:39;;;;;;;;;;;;;;;21.78;100.00;101045.00;21016291;28;20480;-67
2023/10/01 02:07:04;;;;;;;14.80;7.45;;;;;;;21.48;100.00;101042.16;20963415;28;19924;-68
2023/10/01 02:17:29;;;;;;;17.73;8.18;;;;;;;21.35;100.00;101038.00;20982385;28;20497;-68
2023/10/01 02:28:10;;;;;;;14.95;8.27;;;;;;;21.31;100.00;101044.38;20975362;28;20048;-68
2023/10/01 02:38:43;;;;;;;15.02;7.40;;;;;;;21.30;100.00;101050.69;20978585;28;20123;-69
2023/10/01 02:49:12;;;;;;;12.20;6.88;;;;;;;21.31;100.00;101046.19;21020305;28;20502;-69
2023/10/01 02:59:36;;;;;;;16.90;7.70;;;;;;;21.37;100.00;101067.53;20985695;28;20484;-68
2023/10/01 03:10:11;;;;;;;13.95;7.38;;;;;;;21.41;100.00;101075.47;20955512;28;20037;-69
2023/10/01 03:31:18;;;;;;;16.48;6.53;;;;;;;21.64;100.00;101065.97;20968249;28;20056;-68
2023/10/01 03:41:54;;;;;;;12.13;5.88;;;;;;;21.69;100.00;101069.41;20966373;28;20045;-69
2023/10/01 03:52:20;;;;;;;16.45;7.35;;;;;;;21.67;100.00;101058.69;20994101;28;20459;-69
2023/10/01 04:02:47;;;;;;;14.48;6.30;;;;;;;21.61;100.00;101064.22;20961376;28;20407;-69
2023/10/01 04:13:20;;;;;;;15.48;6.45;;;;;;;21.62;100.00;101054.38;20980981;28;20149;-69
2023/10/01 04:23:48;;;;;;;13.77;6.28;;;;;;;21.73;100.00;101071.09;21009110;28;20048;-69
2023/10/01 04:34:13;;;;;;;10.60;5.50;;;;;;;21.88;100.00;101068.91;20953410;28;20053;-70
2023/10/01 04:44:36;;;;;;;12.50;6.25;;;;;;;21.99;100.00;101068.66;20948338;28;20293;-70
2023/10/01 04:55:01;;;;;;;15.20;5.95;;;;;;;22.04;100.00;101074.81;20973156;28;20518;-69
2023/10/01 05:05:26;;;;;;;17.02;5.68;;;;;;;22.05;100.00;101065.84;20979345;28;20126;-69
2023/10/01 05:15:56;;;;;;;12.82;6.03;;;;;;;22.18;100.00;101069.06;20992327;28;20048;-69
2023/10/01 05:26:20;;;;;;;12.18;4.88;;;;;;;22.22;100.00;101055.47;21006307;28;20125;-69
2023/10/01 05:36:45;;;;;;;13.15;5.65;;;;;;;22.23;100.00;101072.50;20965939;28;20052;-69
2023/10/01 05:47:11;;;;;;;13.40;5.68;;;;;;;22.41;100.00;101088.13;20973087;28;20075;-69
2023/10/01 05:57:35;;;;;;;11.75;5.03;;;;;;;22.79;100.00;101095.13;20997457;28;20411;-69
2023/10/01 06:07:57;;;;;;;15.02;5.38;;;;;;;23.11;100.00;101101.38;20980027;28;20064;-69
2023/10/01 06:18:22;;;;;;;14.13;5.65;;;;;;;23.15;100.00;101103.94;20963697;28;20130;-69
2023/10/01 06:28:45;;;;;;;13.93;5.28;;;;;;;23.42;100.00;101130.03;20964083;28;20048;-69
2023/10/01 06:39:19;;;;;;;10.98;5.38;;;;;;;23.87;100.00;101125.91;20979465;28;20052;-69
2023/10/01 06:49:57;;;;;;;11.30;5.20;;;;;;;24.90;100.00;101125.84;20927224;28;20056;-69
2023/10/01 07:00:23;;;;;;;12.73;4.68;;;;;;;25.66;100.00;101128.28;20988492;28;20052;-69
2023/10/01 07:10:50;;;;;;;14.33;5.13;;;;;;;26.27;100.00;101127.53;20984000;28;20082;-69
2023/10/01 07:21:16;;;;;;;9.95;4.10;;;;;;;26.68;100.00;101132.00;20987634;28;20044;-70
2023/10/01 07:31:39;;;;;;;13.17;5.63;;;;;;;27.07;100.00;101139.28;20973681;28;20056;-69
2023/10/01 07:42:04;;;;;;;9.48;5.00;;;;;;;27.58;100.00;101135.94;20982303;28;20044;-69
2023/10/01 07:52:27;;;;;;;10.35;4.68;;;;;;;27.95;100.00;101148.59;20944186;28;20047;-69
2023/10/01 08:13:30;;;;;;;14.43;5.22;;;;;;;28.45;90.58;101154.16;21051662;28;20118;-69
2023/10/01 08:23:57;;;;;;;9.47;4.53;;;;;;;28.62;85.32;101156.00;21017626;28;20044;-69
2023/10/01 08:34:27;;;;;;;12.20;4.53;;;;;;;29.02;78.59;101152.03;20970687;28;20306;-69
2023/10/01 08:44:54;;;;;;;10.27;4.43;;;;;;;29.11;72.35;101162.41;20940253;28;20052;-69
2023/10/01 08:55:18;;;;;;;10.32;4.53;;;;;;;29.15;70.99;101159.44;20970903;28;20117;-70
2023/10/01 09:06:01;;;;;;;12.05;4.30;;;;;;;29.30;69.21;101183.06;21036370;28;20044;-70
2023/10/01 09:16:30;;;;;;;12.50;4.80;;;;;;;29.55;70.17;101189.88;21036148;28;20044;-70
2023/10/01 09:26:56;;;;;;;10.18;4.40;;;;;;;29.89;72.77;101184.28;20950778;28;20155;-70
2023/10/01 09:37:33;;;;;;;12.30;4.37;;;;;;;30.14;68.73;101181.03;21047500;28;20059;-70
2023/10/01 09:48:05;;;;;;;10.50;3.97;;;;;;;30.28;63.70;101182.94;21058664;28;20303;-70
2023/10/01 09:58:29;;;;;;;14.18;5.45;;;;;;;30.29;64.09;101173.78;21069426;28;20143;-70
2023/10/01 10:09:04;;;;;;;13.52;4.07;;;;;;;30.39;60.97;101175.00;20963983;28;20493;-70
2023/10/01 10:19:30;;;;;;;13.13;4.60;;;;;;;30.56;56.37;101174.88;20956715;28;20056;-70
2023/10/01 10:30:21;;;;;;;11.35;4.13;;;;;;;30.30;49.27;101165.53;21000063;28;20048;-70
2023/10/01 10:41:06;;;;;;;10.40;3.72;;;;;;;30.25;48.93;101156.75;20960264;28;20052;-70
2023/10/01 10:51:47;;;;;;;11.90;4.00;;;;;;;29.98;47.81;101133.88;20970237;28;20056;-69
2023/10/01 11:02:10;;;;;;;13.10;4.07;;;;;;;29.86;49.45;101126.41;20918394;28;20135;-70
2023/10/01 11:12:54;;;;;;;11.50;3.83;;;;;;;29.67;49.46;101116.56;20958742;28;20496;-69
2023/10/01 11:23:18;;;;;;;8.05;4.50;;;;;;;29.44;49.73;101135.19;20974048;28;20045;-70
2023/10/01 11:33:47;;;;;;;13.25;4.38;;;;;;;29.36;50.21;101130.19;20966651;28;20131;-69
2023/10/01 11:44:24;;;;;;;14.95;4.28;;;;;;;29.25;48.92;101119.91;20968983;28;20063;-69
2023/10/01 11:54:53;;;;;;;9.45;4.25;;;;;;;29.14;48.95;101111.47;20966320;28;20056;-69
2023/10/01 12:05:16;;;;;;;9.80;3.95;;;;;;;28.95;50.80;101126.16;20947925;28;20048;-70
2023/10/01 12:15:51;;;;;;;12.45;4.63;;;;;;;28.85;49.19;101132.09;20933168;28;20054;-69
2023/10/01 12:36:51;;;;;;;15.63;6.40;;;;;;;28.66;50.25;101103.25;20961459;28;20118;-69
2023/10/01 12:47:15;;;;;;;14.35;4.68;;;;;;;28.63;52.42;101100.69;21001561;28;20040;-69
2023/10/01 12:57:41;;;;;;;10.85;4.68;;;;;;;28.43;50.71;101099.91;20980575;28;20497;-69
2023/10/01 13:08:05;;;;;;;10.00;5.32;;;;;;;28.33;50.21;101095.06;20992728;28;20139;-68
2023/10/01 13:18:30;;;;;;;12.48;4.88;;;;;;;28.14;48.15;101087.88;20973581;28;20045;-68
2023/10/01 13:28:56;;;;;;;9.80;5.03;;;;;;;28.01;50.79;101083.13;20976957;28;20416;-68
2023/10/01 13:39:44;;;;;;;12.82;4.78;;;;;;;27.79;53.59;101090.59;20958961;28;20067;-69
2023/10/01 14:11:39;;;;;;;12.63;4.78;;;;;;;27.12;49.73;101070.34;20939533;28;20050;-70
2023/10/01 14:22:03;;;;;;;16.73;5.22;;;;;;;26.93;52.27;101091.16;20963815;28;20049;-69
2023/10/01 14:32:34;;;;;;;12.68;5.85;;;;;;;26.73;56.46;101094.75;20990325;28;20528;-70
2023/10/01 14:43:00;;;;;;;12.43;5.40;;;;;;;26.52;57.94;101096.59;20983364;28;20072;-70
2023/10/01 14:53:23;;;;;;;12.45;5.30;;;;;;;26.33;58.58;101092.06;20991590;28;20134;-70
2023/10/01 15:03:53;;;;;;;12.10;4.95;;;;;;;26.15;55.99;101104.56;20975444;28;20052;-70
2023/10/01 15:14:16;;;;;;;11.50;4.88;;;;;;;26.00;63.81;101099.81;20992646;28;20049;-69
2023/10/01 15:24:42;;;;;;;12.50;4.88;;;;;;;25.78;67.23;101105.25;20959291;28;20064;-69
2023/10/01 15:35:06;;;;;;;11.82;5.35;;;;;;;25.62;68.92;101106.81;20988561;28;20136;-70
2023/10/01 15:45:30;;;;;;;12.50;5.20;;;;;;;25.47;72.48;101107.44;20961381;28;20045;-70
2023/10/01 15:56:00;;;;;;;10.68;4.93;;;;;;;25.25;71.23;101116.41;20973659;28;20045;-69
2023/10/01 16:06:30;;;;;;;11.05;5.38;;;;;;;25.10;76.66;101119.69;20961636;28;20040;-70
2023/10/01 16:16:52;;;;;;;12.00;5.65;;;;;;;24.99;84.49;101124.63;20951895;28;20061;-70
2023/10/01 16:27:25;;;;;;;13.05;5.65;;;;;;;24.88;91.72;101134.91;20962047;28;20110;-70
2023/10/01 16:37:49;;;;;;;15.65;5.32;;;;;;;24.80;96.62;101126.22;20989949;28;20076;-71
2023/10/01 16:48:24;;;;;;;14.23;5.75;;;;;;;24.71;98.58;101115.75;20968710;28;20326;-70
2023/10/01 16:58:47;;;;;;;13.10;6.15;;;;;;;24.65;100.00;101133.06;20979373;28;20139;-70
2023/10/01 17:09:13;;;;;;;14.98;6.25;;;;;;;24.59;100.00;101127.91;20965900;28;20970;-70
2023/10/01 17:19:36;;;;;;;17.00;5.72;;;;;;;24.49;100.00;101142.66;20960603;28;20056;-69
2023/10/01 17:30:18;;;;;;;16.15;5.68;;;;;;;24.44;99.93;101132.03;20964568;28;20485;-70
2023/10/01 17:40:48;;;;;;;13.45;5.95;;;;;;;24.39;100.00;101115.13;20986211;28;20086;-70
2023/10/01 17:51:13;;;;;;;18.75;6.28;;;;;;;24.31;100.00;101113.63;21004658;28;20382;-70
2023/10/01 18:01:38;;;;;;;17.33;6.20;;;;;;;24.22;100.00;101126.50;20955827;28;20463;-70
2023/10/01 18:12:02;;;;;;;17.70;5.60;;;;;;;24.17;100.00;101141.06;20943172;28;20063;-70
2023/10/01 18:22:28;;;;;;;14.73;6.25;;;;;;;24.09;100.00;101144.00;20946682;28;20503;-70
2023/10/01 18:32:54;;;;;;;18.83;5.60;;;;;;;24.07;100.00;101161.19;20944233;28;20052;-70
2023/10/01 18:43:18;;;;;;;16.08;5.47;;;;;;;24.10;99.33;101182.66;20997482;28;20048;-71
2023/10/01 18:53:43;;;;;;;12.32;5.43;;;;;;;24.06;99.39;101191.81;20975717;28;20522;-71
2023/10/01 19:04:09;;;;;;;13.82;5.95;;;;;;;23.95;100.00;101199.38;20965626;28;20082;-71
2023/10/01 19:14:34;;;;;;;14.38;5.80;;;;;;;23.78;88.92;101197.22;20956849;28;20084;-71
2023/10/01 19:24:57;;;;;;;13.57;5.72;;;;;;;23.71;71.25;101210.00;20977679;28;20095;-70
2023/10/01 19:35:21;;;;;;;16.85;6.82;;;;;;;23.71;64.40;101211.81;20975631;28;20604;-70
2023/10/01 19:45:44;;;;;;;10.07;6.35;;;;;;;23.73;63.29;101228.84;20949511;28;20106;-70
2023/10/01 19:56:12;;;;;;;16.15;7.80;;;;;;;23.72;66.71;101243.25;20906115;28;20044;-70
2023/10/01 20:06:38;;;;;;;14.15;7.88;;;;;;;23.66;68.52;101229.94;20957184;28;20049;-70
2023/10/01 20:17:02;;;;;;;17.08;8.48;;;;;;;23.63;67.31;101233.63;20947726;28;20062;-71
2023/10/01 20:27:27;;;;;;;15.15;7.95;;;;;;;23.59;67.49;101234.66;20975961;28;20059;-71
2023/10/01 20:37:56;;;;;;;18.17;7.47;;;;;;;23.56;67.46;101229.38;20920259;28;20052;-71
2023/10/01 20:48:36;;;;;;;13.82;7.53;;;;;;;23.51;66.62;101233.09;21002769;28;20048;-70
2023/10/01 20:59:12;;;;;;;13.45;7.13;;;;;;;23.50;63.61;101224.13;20975572;28;20044;-71
2023/10/01 21:09:38;;;;;;;15.95;6.53;;;;;;;23.58;87.77;101237.38;20959190;28;20053;-70
2023/10/01 21:20:12;;;;;;;15.52;6.22;;;;;;;23.52;100.00;101241.16;20902870;28;20059;-70
2023/10/01 21:30:34;;;;;;;13.70;7.18;;;;;;;23.39;100.00;101220.84;20909808;28;20092;-70
2023/10/01 21:40:59;;;;;;;14.02;6.88;;;;;;;23.27;92.00;101218.53;20940067;28;20077;-71
2023/10/01 21:51:21;;;;;;;18.20;6.60;;;;;;;23.21;84.63;101211.50;21012182;28;20044;-70
2023/10/01 22:01:47;;;;;;;17.33;6.93;;;;;;;23.15;87.52;101211.69;20950969;28;20044;-70
2023/10/01 22:12:14;;;;;;;12.90;6.07;;;;;;;23.08;91.55;101193.94;21003011;28;20044;-71
2023/10/01 22:22:38;;;;;;;13.55;6.15;;;;;;;23.03;92.75;101191.41;20946805;28;20048;-70
2023/10/01 22:33:01;;;;;;;13.93;6.30;;;;;;;22.99;88.95;101195.06;20982981;28;20048;-71
2023/10/01 22:43:26;;;;;;;14.50;5.78;;;;;;;23.00;86.04;101185.19;20943818;28;20052;-70
2023/10/01 22:53:49;;;;;;;14.63;7.10;;;;;;;23.06;96.60;101182.31;20976449;28;20052;-70
2023/10/01 23:04:19;;;;;;;16.45;6.53;;;;;;;23.06;100.00;101171.53;20976985;28;20045;-70
2023/10/01 23:14:41;;;;;;;14.88;6.30;;;;;;;23.05;100.00;101170.66;20986937;28;20052;-71
2023/10/01 23:25:08;;;;;;;15.15;6.55;;;;;;;23.04;100.00;101166.19;20973696;28;20053;-70
2023/10/01 23:35:52;;;;;;;15.88;6.18;;;;;;;23.05;100.00;101167.97;20958371;28;20508;-71
2023/10/01 23:46:17;;;;;;;15.10;6.05;;;;;;;23.00;100.00;101169.91;20927773;28;20049;-71
2023/10/01 23:56:40;;;;;;;14.18;6.25;;;;;;;22.99;100.00;101165.47;20957811;28;20048;-71
